createdAt,value
2023-01-18T00:00:32.227Z,48.10
2023-01-18T00:01:35.288Z,48.28
2023-01-18T00:02:38.744Z,48.25
2023-01-18T00:03:42.646Z,48.00
2023-01-18T00:04:44.936Z,48.15
2023-01-18T00:05:48.905Z,48.29
2023-01-18T00:06:51.500Z,47.96
2023-01-18T00:07:55.042Z,48.63
2023-01-18T00:08:58.782Z,48.43
2023-01-18T00:10:02.589Z,48.36
2023-01-18T00:11:07.153Z,48.29
2023-01-18T00:12:10.474Z,48.47
2023-01-18T00:13:13.386Z,48.37
2023-01-18T00:14:16.648Z,48.39
2023-01-18T00:15:20.393Z,48.72
2023-01-18T00:16:23.178Z,48.44
2023-01-18T00:17:26.794Z,48.59
2023-01-18T00:18:29.207Z,48.83
2023-01-18T00:19:33.794Z,48.66
2023-01-18T00:20:36.055Z,49.00
2023-01-18T00:21:39.589Z,49.11
2023-01-18T00:22:41.835Z,49.01
2023-01-18T00:23:45.425Z,49.04
2023-01-18T00:24:49.162Z,49.15
2023-01-18T00:25:52.621Z,49.14
2023-01-18T00:26:54.957Z,49.09
2023-01-18T00:27:58.900Z,49.43
2023-01-18T00:29:01.196Z,49.41
2023-01-18T00:30:05.306Z,49.63
2023-01-18T00:31:10.977Z,50.06
2023-01-18T00:32:14.669Z,49.99
2023-01-18T00:33:18.157Z,50.15
2023-01-18T00:34:20.609Z,50.04
2023-01-18T00:35:23.924Z,50.01
2023-01-18T00:36:27.050Z,49.57
2023-01-18T00:37:32.371Z,50.06
2023-01-18T00:38:34.774Z,49.72
2023-01-18T00:39:38.093Z,49.77
2023-01-18T00:40:41.844Z,49.67
2023-01-18T00:41:59.112Z,50.05
2023-01-18T00:43:19.707Z,49.56
2023-01-18T00:44:23.137Z,49.92
2023-01-18T00:45:26.073Z,49.97
2023-01-18T00:46:29.533Z,50.27
2023-01-18T00:47:32.179Z,50.12
2023-01-18T00:48:36.226Z,50.32
2023-01-18T00:49:39.044Z,50.02
2023-01-18T00:50:42.801Z,50.21
2023-01-18T00:51:45.036Z,50.47
2023-01-18T00:52:48.889Z,50.56
2023-01-18T00:53:52.723Z,50.56
2023-01-18T00:54:55.037Z,51.10
2023-01-18T00:56:00.243Z,51.37
2023-01-18T00:57:02.848Z,50.32
2023-01-18T00:58:06.172Z,51.12
2023-01-18T00:59:08.526Z,51.15
2023-01-18T01:00:15.416Z,51.46
2023-01-18T01:01:18.789Z,51.08
2023-01-18T01:02:21.516Z,51.32
2023-01-18T01:03:25.321Z,51.16
2023-01-18T01:04:46.612Z,50.89
2023-01-18T01:06:07.645Z,50.95
2023-01-18T01:07:09.889Z,51.29
2023-01-18T01:08:17.912Z,50.85
2023-01-18T01:09:24.685Z,51.05
2023-01-18T01:10:27.756Z,50.94
2023-01-18T01:11:32.672Z,50.67
2023-01-18T01:12:53.820Z,50.57
2023-01-18T01:14:15.107Z,50.24
2023-01-18T01:15:35.939Z,50.15
2023-01-18T01:16:56.657Z,50.53
2023-01-18T01:18:17.724Z,50.10
2023-01-18T01:19:38.532Z,50.08
2023-01-18T01:20:59.471Z,50.08
2023-01-18T01:22:20.723Z,50.19
2023-01-18T01:23:42.993Z,50.32
2023-01-18T01:25:03.995Z,49.98
2023-01-18T01:26:09.202Z,50.10
2023-01-18T01:27:12.957Z,50.25
2023-01-18T01:28:16.239Z,50.17
2023-01-18T01:29:18.586Z,50.03
2023-01-18T01:30:21.828Z,49.79
2023-01-18T01:31:24.499Z,50.00
2023-01-18T01:32:27.752Z,50.02
2023-01-18T01:33:32.317Z,49.78
2023-01-18T01:34:36.052Z,49.68
2023-01-18T01:35:38.898Z,49.92
2023-01-18T01:36:42.249Z,49.90
2023-01-18T01:37:44.814Z,49.56
2023-01-18T01:38:48.201Z,49.66
2023-01-18T01:39:50.430Z,49.84
2023-01-18T01:41:01.903Z,50.43
2023-01-18T01:42:05.341Z,50.14
2023-01-18T01:43:13.658Z,50.01
2023-01-18T01:44:45.276Z,49.76
2023-01-18T01:45:49.700Z,49.65
2023-01-18T01:46:58.166Z,49.13
2023-01-18T01:48:00.808Z,49.63
2023-01-18T01:49:10.265Z,49.53
2023-01-18T01:50:19.184Z,49.16
2023-01-18T01:51:22.852Z,49.40
2023-01-18T01:52:28.125Z,49.25
2023-01-18T01:53:31.430Z,49.21
2023-01-18T01:54:38.782Z,49.56
2023-01-18T01:55:43.403Z,48.99
2023-01-18T01:56:49.105Z,48.99
2023-01-18T01:57:57.521Z,48.78
2023-01-18T01:59:03.153Z,48.69
2023-01-18T02:00:12.920Z,48.85
2023-01-18T02:01:16.698Z,49.04
2023-01-18T02:02:20.285Z,49.10
2023-01-18T02:03:24.820Z,49.25
2023-01-18T02:04:28.495Z,49.23
2023-01-18T02:05:32.383Z,49.47
2023-01-18T02:06:40.207Z,49.25
2023-01-18T02:07:43.376Z,49.14
2023-01-18T02:08:48.507Z,49.68
2023-01-18T02:09:52.869Z,49.97
2023-01-18T02:10:56.163Z,49.80
2023-01-18T02:11:58.405Z,49.90
2023-01-18T02:13:02.866Z,49.71
2023-01-18T02:14:10.238Z,49.37
2023-01-18T02:15:13.840Z,49.30
2023-01-18T02:16:23.045Z,49.48
2023-01-18T02:17:48.409Z,49.32
2023-01-18T02:18:59.527Z,49.53
2023-01-18T02:20:34.343Z,49.24
2023-01-18T02:21:41.222Z,49.23
2023-01-18T02:23:07.360Z,49.35
2023-01-18T02:24:39.170Z,49.24
2023-01-18T02:26:03.412Z,49.25
2023-01-18T02:27:08.681Z,49.03
2023-01-18T02:28:15.733Z,49.32
2023-01-18T02:29:22.685Z,49.14
2023-01-18T02:30:32.014Z,49.15
2023-01-18T02:31:38.581Z,49.13
2023-01-18T02:32:57.776Z,48.98
2023-01-18T02:34:06.473Z,48.73
2023-01-18T02:35:12.810Z,48.80
2023-01-18T02:36:26.345Z,49.18
2023-01-18T02:37:42.647Z,48.96
2023-01-18T02:38:47.006Z,48.82
2023-01-18T02:40:01.414Z,49.04
2023-01-18T02:41:14.314Z,48.92
2023-01-18T02:42:37.526Z,48.78
2023-01-18T02:44:01.639Z,48.57
2023-01-18T02:45:26.680Z,48.62
2023-01-18T02:46:38.965Z,48.22
2023-01-18T02:47:43.663Z,47.69
2023-01-18T02:48:48.505Z,48.26
2023-01-18T02:49:50.868Z,48.16
2023-01-18T02:50:54.032Z,48.35
2023-01-18T02:52:01.646Z,47.38
2023-01-18T02:53:05.066Z,47.47
2023-01-18T02:54:09.976Z,47.46
2023-01-18T02:55:21.274Z,47.28
2023-01-18T02:56:29.080Z,47.09
2023-01-18T02:57:32.989Z,47.35
2023-01-18T02:58:41.451Z,47.19
2023-01-18T02:59:51.175Z,47.27
2023-01-18T03:00:58.577Z,47.38
2023-01-18T03:02:06.350Z,47.20
2023-01-18T03:03:11.149Z,47.48
2023-01-18T03:04:19.487Z,47.70
2023-01-18T03:05:24.601Z,47.78
2023-01-18T03:06:30.326Z,47.97
2023-01-18T03:07:37.676Z,47.93
2023-01-18T03:08:45.575Z,47.56
2023-01-18T03:09:48.363Z,47.52
2023-01-18T03:11:00.333Z,47.70
2023-01-18T03:12:13.287Z,48.09
2023-01-18T03:13:23.034Z,47.62
2023-01-18T03:14:41.016Z,47.69
2023-01-18T03:15:51.885Z,47.47
2023-01-18T03:17:04.628Z,47.23
2023-01-18T03:18:14.721Z,47.71
2023-01-18T03:19:41.285Z,48.04
2023-01-18T03:20:49.254Z,47.51
2023-01-18T03:21:53.309Z,48.23
2023-01-18T03:23:20.376Z,47.93
2023-01-18T03:24:24.822Z,48.21
2023-01-18T03:25:30.636Z,47.58
2023-01-18T03:26:39.634Z,47.55
2023-01-18T03:28:03.535Z,47.54
2023-01-18T03:29:25.564Z,47.71
2023-01-18T03:30:50.964Z,47.63
2023-01-18T03:32:17.889Z,47.38
2023-01-18T03:33:45.346Z,47.69
2023-01-18T03:34:53.921Z,47.68
2023-01-18T03:35:58.214Z,47.68
2023-01-18T03:37:06.258Z,47.77
2023-01-18T03:38:09.837Z,47.39
2023-01-18T03:39:19.805Z,47.62
2023-01-18T03:40:26.430Z,48.18
2023-01-18T03:41:34.762Z,47.74
2023-01-18T03:42:45.249Z,47.82
2023-01-18T03:43:51.663Z,47.82
2023-01-18T03:44:57.478Z,47.64
2023-01-18T03:46:00.253Z,47.84
2023-01-18T03:47:07.309Z,47.69
2023-01-18T03:48:11.016Z,47.66
2023-01-18T03:49:14.934Z,47.55
2023-01-18T03:50:18.333Z,47.42
2023-01-18T03:51:27.256Z,46.95
2023-01-18T03:52:37.771Z,47.02
2023-01-18T03:53:47.134Z,46.93
2023-01-18T03:55:02.525Z,47.26
2023-01-18T03:56:10.249Z,46.97
2023-01-18T03:57:21.004Z,47.08
2023-01-18T03:58:32.669Z,47.05
2023-01-18T03:59:39.473Z,47.10
2023-01-18T04:00:41.916Z,47.09
2023-01-18T04:01:48.241Z,47.21
2023-01-18T04:02:53.813Z,47.03
2023-01-18T04:03:56.408Z,46.91
2023-01-18T04:05:03.774Z,46.80
2023-01-18T04:06:07.552Z,46.74
2023-01-18T04:07:11.352Z,47.05
2023-01-18T04:08:15.397Z,46.73
2023-01-18T04:09:18.695Z,46.88
2023-01-18T04:10:20.901Z,47.45
2023-01-18T04:11:24.303Z,47.04
2023-01-18T04:12:27.108Z,46.86
2023-01-18T04:13:30.345Z,47.36
2023-01-18T04:14:33.086Z,47.19
2023-01-18T04:15:36.392Z,47.03
2023-01-18T04:16:38.560Z,47.51
2023-01-18T04:17:42.476Z,46.95
2023-01-18T04:18:46.078Z,46.99
2023-01-18T04:19:49.287Z,46.76
2023-01-18T04:20:56.529Z,47.02
2023-01-18T04:22:00.240Z,47.28
2023-01-18T04:23:03.076Z,47.04
2023-01-18T04:24:06.932Z,46.72
2023-01-18T04:25:11.031Z,47.32
2023-01-18T04:26:15.473Z,47.39
2023-01-18T04:27:18.941Z,47.21
2023-01-18T04:28:27.628Z,46.90
2023-01-18T04:29:31.350Z,46.44
2023-01-18T04:30:33.463Z,46.70
2023-01-18T04:31:36.895Z,46.60
2023-01-18T04:32:40.001Z,46.93
2023-01-18T04:33:43.242Z,46.83
2023-01-18T04:34:48.019Z,47.05
2023-01-18T04:35:51.102Z,46.95
2023-01-18T04:36:55.100Z,47.30
2023-01-18T04:37:58.498Z,47.23
2023-01-18T04:39:00.806Z,47.22
2023-01-18T04:40:04.119Z,47.00
2023-01-18T04:41:06.862Z,47.32
2023-01-18T04:42:10.237Z,47.50
2023-01-18T04:43:12.488Z,47.39
2023-01-18T04:44:16.218Z,47.25
2023-01-18T04:45:19.693Z,47.30
2023-01-18T04:46:23.142Z,47.52
2023-01-18T04:47:25.468Z,47.92
2023-01-18T04:48:28.714Z,47.98
2023-01-18T04:49:30.870Z,47.57
2023-01-18T04:50:35.586Z,47.70
2023-01-18T04:51:38.958Z,47.94
2023-01-18T04:52:42.416Z,47.81
2023-01-18T04:53:45.123Z,47.67
2023-01-18T04:54:48.890Z,47.73
2023-01-18T04:55:51.386Z,47.70
2023-01-18T04:56:55.124Z,47.65
2023-01-18T04:57:57.604Z,47.72
2023-01-18T04:59:00.903Z,47.33
2023-01-18T05:00:04.260Z,47.52
2023-01-18T05:01:12.229Z,47.62
2023-01-18T05:02:15.559Z,47.75
2023-01-18T05:03:18.862Z,48.27
2023-01-18T05:04:21.399Z,48.20
2023-01-18T05:05:26.437Z,48.10
2023-01-18T05:06:30.265Z,48.04
2023-01-18T05:07:34.684Z,48.06
2023-01-18T05:08:41.073Z,48.08
2023-01-18T05:09:44.649Z,47.80
2023-01-18T05:10:46.887Z,48.06
2023-01-18T05:11:50.307Z,48.02
2023-01-18T05:12:53.262Z,47.83
2023-01-18T05:13:56.912Z,48.43
2023-01-18T05:14:59.203Z,47.54
2023-01-18T05:16:06.050Z,47.97
2023-01-18T05:17:09.713Z,47.39
2023-01-18T05:18:12.097Z,48.17
2023-01-18T05:19:15.326Z,49.07
2023-01-18T05:20:17.638Z,47.89
2023-01-18T05:21:21.394Z,48.58
2023-01-18T05:22:25.701Z,47.55
2023-01-18T05:23:29.244Z,46.85
2023-01-18T05:24:31.655Z,46.72
2023-01-18T05:25:34.921Z,47.30
2023-01-18T05:26:37.253Z,48.11
2023-01-18T05:27:40.855Z,48.07
2023-01-18T05:28:44.041Z,47.14
2023-01-18T05:29:49.416Z,47.30
2023-01-18T05:30:53.196Z,47.69
2023-01-18T05:31:55.435Z,47.28
2023-01-18T05:32:59.040Z,47.60
2023-01-18T05:34:01.534Z,47.26
2023-01-18T05:35:04.996Z,47.84
2023-01-18T05:36:08.241Z,47.93
2023-01-18T05:37:11.592Z,47.77
2023-01-18T05:38:15.256Z,47.24
2023-01-18T05:39:19.193Z,47.18
2023-01-18T05:40:22.056Z,47.65
2023-01-18T05:41:25.360Z,47.10
2023-01-18T05:42:27.530Z,47.42
2023-01-18T05:43:31.213Z,47.10
2023-01-18T05:44:34.736Z,47.23
2023-01-18T05:45:37.206Z,47.11
2023-01-18T05:46:40.861Z,47.64
2023-01-18T05:47:43.243Z,47.75
2023-01-18T05:48:46.939Z,48.38
2023-01-18T05:49:49.876Z,48.41
2023-01-18T05:50:53.594Z,47.61
2023-01-18T05:51:55.783Z,47.72
2023-01-18T05:53:00.013Z,48.68
2023-01-18T05:54:04.367Z,49.07
2023-01-18T05:55:08.168Z,48.54
2023-01-18T05:56:10.609Z,48.92
2023-01-18T05:57:14.045Z,49.40
2023-01-18T05:58:17.006Z,50.50
2023-01-18T05:59:20.405Z,50.26
2023-01-18T06:00:23.589Z,51.73
2023-01-18T06:01:27.067Z,50.78
2023-01-18T06:02:29.792Z,51.46
2023-01-18T06:03:32.998Z,51.04
2023-01-18T06:04:36.483Z,50.72
2023-01-18T06:05:38.707Z,49.80
2023-01-18T06:06:41.972Z,49.48
2023-01-18T06:07:44.200Z,48.94
2023-01-18T06:08:47.420Z,48.65
2023-01-18T06:09:52.121Z,49.26
2023-01-18T06:10:56.426Z,49.04
2023-01-18T06:11:58.569Z,50.28
2023-01-18T06:13:01.824Z,50.05
2023-01-18T06:14:04.122Z,50.39
2023-01-18T06:15:09.016Z,49.70
2023-01-18T06:16:12.430Z,50.33
2023-01-18T06:17:15.152Z,50.36
2023-01-18T06:18:18.232Z,49.96
2023-01-18T06:19:21.511Z,50.12
2023-01-18T06:20:23.729Z,49.87
2023-01-18T06:21:27.074Z,50.64
2023-01-18T06:22:29.707Z,50.26
2023-01-18T06:23:33.620Z,50.36
2023-01-18T06:24:35.747Z,49.67
2023-01-18T06:25:41.077Z,49.96
2023-01-18T06:26:44.356Z,49.48
2023-01-18T06:27:46.673Z,49.93
2023-01-18T06:28:50.209Z,49.73
2023-01-18T06:29:53.287Z,49.23
2023-01-18T06:30:56.484Z,49.17
2023-01-18T06:31:59.741Z,49.51
2023-01-18T06:33:06.973Z,50.05
2023-01-18T06:34:10.525Z,50.15
2023-01-18T06:35:13.175Z,50.59
2023-01-18T06:36:16.605Z,51.01
2023-01-18T06:37:18.821Z,51.22
2023-01-18T06:38:22.075Z,50.75
2023-01-18T06:39:25.254Z,50.07
2023-01-18T06:40:27.609Z,49.63
2023-01-18T06:41:32.568Z,48.87
2023-01-18T06:42:34.991Z,49.66
2023-01-18T06:43:38.232Z,49.12
2023-01-18T06:44:41.082Z,48.76
2023-01-18T06:45:44.330Z,48.63
2023-01-18T06:46:48.629Z,49.26
2023-01-18T06:47:52.348Z,49.27
2023-01-18T06:48:54.924Z,49.50
2023-01-18T06:49:58.417Z,49.26
2023-01-18T06:51:00.846Z,49.69
2023-01-18T06:52:04.638Z,49.52
2023-01-18T06:53:06.945Z,49.67
2023-01-18T06:54:11.095Z,49.01
2023-01-18T06:55:15.129Z,49.80
2023-01-18T06:56:19.050Z,48.55
2023-01-18T06:57:24.031Z,48.77
2023-01-18T06:58:28.594Z,48.63
2023-01-18T06:59:31.361Z,48.30
2023-01-18T07:00:35.763Z,48.24
2023-01-18T07:01:39.076Z,48.11
2023-01-18T07:02:41.712Z,48.96
2023-01-18T07:03:45.875Z,47.79
2023-01-18T07:04:48.451Z,47.91
2023-01-18T07:05:53.582Z,49.49
2023-01-18T07:06:55.942Z,49.46
2023-01-18T07:07:59.365Z,49.17
2023-01-18T07:09:01.491Z,49.05
2023-01-18T07:10:05.484Z,49.37
2023-01-18T07:11:09.302Z,49.37
2023-01-18T07:12:12.980Z,49.84
2023-01-18T07:13:17.030Z,50.31
2023-01-18T07:14:21.574Z,50.89
2023-01-18T07:15:24.240Z,51.57
2023-01-18T07:16:28.833Z,51.72
2023-01-18T07:17:31.105Z,51.44
2023-01-18T07:18:34.861Z,51.35
2023-01-18T07:19:38.427Z,50.64
2023-01-18T07:20:40.961Z,51.22
2023-01-18T07:21:44.858Z,52.09
2023-01-18T07:22:50.916Z,51.55
2023-01-18T07:23:54.746Z,50.65
2023-01-18T07:24:58.336Z,50.86
2023-01-18T07:26:01.800Z,50.67
2023-01-18T07:27:05.477Z,50.52
2023-01-18T07:28:07.749Z,50.16
2023-01-18T07:29:12.911Z,50.11
2023-01-18T07:30:16.051Z,49.97
2023-01-18T07:31:20.409Z,50.28
2023-01-18T07:32:22.969Z,50.13
2023-01-18T07:33:26.463Z,49.98
2023-01-18T07:34:29.943Z,49.67
2023-01-18T07:35:32.801Z,49.79
2023-01-18T07:36:39.249Z,49.71
2023-01-18T07:37:41.785Z,49.71
2023-01-18T07:38:45.459Z,49.59
2023-01-18T07:39:48.019Z,50.28
2023-01-18T07:40:51.981Z,50.31
2023-01-18T07:41:55.476Z,50.58
2023-01-18T07:42:58.639Z,50.72
2023-01-18T07:44:03.175Z,50.73
2023-01-18T07:45:09.532Z,50.15
2023-01-18T07:46:14.273Z,50.44
2023-01-18T07:47:16.861Z,50.31
2023-01-18T07:48:20.070Z,50.02
2023-01-18T07:49:23.424Z,49.31
2023-01-18T07:50:26.194Z,49.55
2023-01-18T07:51:30.633Z,49.72
2023-01-18T07:52:32.961Z,50.15
2023-01-18T07:53:37.386Z,50.70
2023-01-18T07:54:39.537Z,50.59
2023-01-18T07:55:42.792Z,50.16
2023-01-18T07:56:46.459Z,50.04
2023-01-18T07:57:48.921Z,49.56
2023-01-18T07:58:53.174Z,50.48
2023-01-18T07:59:55.567Z,50.63
2023-01-18T08:01:05.520Z,50.19
2023-01-18T08:02:12.596Z,50.63
2023-01-18T08:03:16.704Z,50.67
2023-01-18T08:04:20.493Z,50.28
2023-01-18T08:05:26.848Z,50.00
2023-01-18T08:06:30.222Z,50.40
2023-01-18T08:07:33.135Z,50.59
2023-01-18T08:08:37.556Z,49.65
2023-01-18T08:09:40.931Z,51.08
2023-01-18T08:10:44.144Z,50.87
2023-01-18T08:11:47.810Z,50.03
2023-01-18T08:12:51.281Z,49.78
2023-01-18T08:13:54.623Z,49.54
2023-01-18T08:14:57.038Z,49.22
2023-01-18T08:16:02.023Z,48.90
2023-01-18T08:17:06.958Z,49.03
2023-01-18T08:18:09.294Z,48.53
2023-01-18T08:19:12.878Z,48.31
2023-01-18T08:20:16.351Z,48.52
2023-01-18T08:21:20.084Z,48.17
2023-01-18T08:22:23.694Z,48.58
2023-01-18T08:23:26.525Z,48.72
2023-01-18T08:24:29.882Z,48.24
2023-01-18T08:25:33.647Z,48.29
2023-01-18T08:26:37.974Z,47.71
2023-01-18T08:27:40.819Z,46.98
2023-01-18T08:28:44.902Z,45.88
2023-01-18T08:29:48.277Z,45.39
2023-01-18T08:30:51.954Z,45.00
2023-01-18T08:31:55.557Z,45.61
2023-01-18T08:33:01.458Z,44.32
2023-01-18T08:34:05.383Z,44.74
2023-01-18T08:35:09.148Z,44.88
2023-01-18T08:36:16.754Z,44.04
2023-01-18T08:37:19.054Z,44.53
2023-01-18T08:38:22.695Z,43.81
2023-01-18T08:39:26.036Z,43.89
2023-01-18T08:40:28.969Z,42.63
2023-01-18T08:41:32.318Z,42.86
2023-01-18T08:42:35.320Z,43.23
2023-01-18T08:43:38.989Z,42.46
2023-01-18T08:44:42.563Z,43.22
2023-01-18T08:45:51.424Z,42.92
2023-01-18T08:46:55.139Z,43.63
2023-01-18T08:48:00.897Z,43.56
2023-01-18T08:49:05.804Z,43.10
2023-01-18T08:50:13.705Z,41.65
2023-01-18T08:51:18.153Z,41.79
2023-01-18T08:52:21.374Z,40.73
2023-01-18T08:53:23.832Z,40.70
2023-01-18T08:54:27.366Z,40.44
2023-01-18T08:55:30.197Z,40.29
2023-01-18T08:56:34.572Z,39.67
2023-01-18T08:57:37.534Z,39.78
2023-01-18T08:58:41.187Z,39.06
2023-01-18T08:59:44.829Z,39.36
2023-01-18T09:00:50.615Z,38.31
2023-01-18T09:01:54.057Z,37.93
2023-01-18T09:02:56.580Z,38.45
2023-01-18T09:04:01.994Z,38.17
2023-01-18T09:05:04.770Z,38.14
2023-01-18T09:06:12.549Z,38.49
2023-01-18T09:07:16.467Z,38.95
2023-01-18T09:08:20.020Z,39.02
2023-01-18T09:09:23.539Z,39.95
2023-01-18T09:10:26.213Z,41.04
2023-01-18T09:11:29.504Z,41.30
2023-01-18T09:12:34.975Z,41.69
2023-01-18T09:13:54.600Z,43.06
2023-01-18T09:15:02.811Z,43.28
2023-01-18T09:16:08.148Z,43.51
2023-01-18T09:17:10.267Z,42.48
2023-01-18T09:18:13.748Z,43.36
2023-01-18T09:19:17.803Z,44.67
2023-01-18T09:20:21.360Z,44.27
2023-01-18T09:21:24.442Z,43.53
2023-01-18T09:22:28.094Z,42.42
2023-01-18T09:23:30.394Z,41.71
2023-01-18T09:24:34.064Z,40.74
2023-01-18T09:25:37.113Z,39.88
2023-01-18T09:26:40.993Z,39.99
2023-01-18T09:27:43.886Z,39.83
2023-01-18T09:28:51.118Z,39.91
2023-01-18T09:29:54.302Z,40.23
2023-01-18T09:31:00.361Z,40.04
2023-01-18T09:32:03.599Z,40.40
2023-01-18T09:33:07.203Z,39.55
2023-01-18T09:34:19.256Z,38.88
2023-01-18T09:35:24.606Z,38.75
2023-01-18T09:36:28.095Z,38.79
2023-01-18T09:37:31.545Z,38.53
2023-01-18T09:38:36.595Z,37.82
2023-01-18T09:39:51.000Z,36.19
2023-01-18T09:40:59.639Z,35.04
2023-01-18T09:42:02.963Z,34.77
2023-01-18T09:43:17.640Z,34.31
2023-01-18T09:44:29.993Z,33.19
2023-01-18T09:45:37.047Z,33.40
2023-01-18T09:46:42.165Z,33.23
2023-01-18T09:47:48.679Z,34.15
2023-01-18T09:48:56.610Z,34.19
2023-01-18T09:50:02.515Z,34.80
2023-01-18T09:51:13.744Z,34.15
2023-01-18T09:52:28.702Z,32.52
2023-01-18T09:53:45.269Z,32.32
2023-01-18T09:54:55.274Z,32.73
2023-01-18T09:56:06.047Z,32.05
2023-01-18T09:57:18.925Z,30.98
2023-01-18T09:58:36.701Z,30.38
2023-01-18T09:59:44.370Z,29.12
2023-01-18T10:00:48.919Z,29.59
2023-01-18T10:01:55.949Z,29.25
2023-01-18T10:03:02.531Z,29.16
2023-01-18T10:04:08.859Z,28.51
2023-01-18T10:05:16.677Z,29.28
2023-01-18T10:06:26.162Z,28.93
2023-01-18T10:07:30.718Z,28.23
2023-01-18T10:08:34.003Z,28.47
2023-01-18T10:09:41.851Z,28.19
2023-01-18T10:10:55.107Z,27.40
2023-01-18T10:12:01.771Z,27.73
2023-01-18T10:13:26.440Z,28.29
2023-01-18T10:14:42.670Z,26.67
2023-01-18T10:15:46.808Z,26.69
2023-01-18T10:16:56.978Z,26.24
2023-01-18T10:18:01.118Z,26.33
2023-01-18T10:19:05.401Z,25.98
2023-01-18T10:20:16.514Z,26.72
2023-01-18T10:21:31.905Z,28.63
2023-01-18T10:22:45.365Z,28.55
2023-01-18T10:24:06.705Z,28.18
2023-01-18T10:25:17.209Z,27.91
2023-01-18T10:26:26.900Z,28.59
2023-01-18T10:27:50.113Z,28.93
2023-01-18T10:29:02.601Z,29.49
2023-01-18T10:30:25.743Z,30.05
2023-01-18T10:31:39.900Z,29.39
2023-01-18T10:32:48.271Z,30.00
2023-01-18T10:33:54.863Z,31.09
2023-01-18T10:34:59.098Z,30.96
2023-01-18T10:36:06.007Z,31.82
2023-01-18T10:37:16.228Z,32.84
2023-01-18T10:38:23.254Z,33.63
2023-01-18T10:39:32.663Z,33.89
2023-01-18T10:40:38.737Z,34.68
2023-01-18T10:41:43.993Z,36.67
2023-01-18T10:42:48.106Z,37.24
2023-01-18T10:43:51.476Z,37.54
2023-01-18T10:44:54.131Z,37.19
2023-01-18T10:45:57.665Z,36.92
2023-01-18T10:47:02.694Z,37.10
2023-01-18T10:48:25.968Z,35.99
2023-01-18T10:49:38.585Z,37.17
2023-01-18T10:50:44.525Z,37.35
2023-01-18T10:51:49.710Z,37.51
2023-01-18T10:52:54.306Z,38.69
2023-01-18T10:53:57.651Z,37.98
2023-01-18T10:55:03.186Z,37.87
2023-01-18T10:56:12.635Z,38.03
2023-01-18T10:57:23.229Z,38.39
2023-01-18T10:58:30.643Z,39.02
2023-01-18T10:59:41.641Z,38.58
2023-01-18T11:00:54.786Z,39.36
2023-01-18T11:01:59.634Z,40.04
2023-01-18T11:03:08.586Z,40.00
2023-01-18T11:04:22.343Z,39.65
2023-01-18T11:05:31.340Z,39.96
2023-01-18T11:06:46.584Z,39.62
2023-01-18T11:08:10.088Z,39.27
2023-01-18T11:09:43.725Z,38.30
2023-01-18T11:10:46.561Z,38.94
2023-01-18T11:12:07.562Z,39.20
2023-01-18T11:13:28.629Z,39.04
2023-01-18T11:14:33.437Z,40.44
2023-01-18T11:15:36.094Z,40.11
2023-01-18T11:16:42.921Z,40.01
2023-01-18T11:17:58.734Z,38.85
2023-01-18T11:19:04.057Z,39.08
2023-01-18T11:20:08.414Z,39.63
2023-01-18T11:21:12.889Z,39.97
2023-01-18T11:22:18.606Z,39.64
2023-01-18T11:23:25.608Z,38.64
2023-01-18T11:24:32.231Z,38.94
2023-01-18T11:25:39.343Z,39.10
2023-01-18T11:26:54.572Z,39.33
2023-01-18T11:28:02.283Z,39.24
2023-01-18T11:29:08.464Z,40.09
2023-01-18T11:30:21.485Z,39.67
2023-01-18T11:31:26.821Z,39.63
2023-01-18T11:32:31.005Z,38.39
2023-01-18T11:33:34.840Z,38.86
2023-01-18T11:34:41.218Z,39.03
2023-01-18T11:35:45.127Z,39.07
2023-01-18T11:36:49.960Z,40.34
2023-01-18T11:37:52.201Z,40.26
2023-01-18T11:38:55.511Z,40.12
2023-01-18T11:40:00.532Z,40.87
2023-01-18T11:41:13.746Z,40.09
2023-01-18T11:42:27.806Z,40.76
2023-01-18T11:43:31.961Z,40.60
2023-01-18T11:44:38.228Z,39.87
2023-01-18T11:45:48.202Z,39.04
2023-01-18T11:46:55.137Z,38.44
2023-01-18T11:48:08.050Z,38.81
2023-01-18T11:49:33.089Z,38.10
2023-01-18T11:50:42.345Z,38.50
2023-01-18T11:51:50.167Z,38.30
2023-01-18T11:52:57.487Z,37.99
2023-01-18T11:54:06.954Z,38.08
2023-01-18T11:55:21.242Z,37.89
2023-01-18T11:56:33.679Z,37.22
2023-01-18T11:57:37.245Z,35.64
2023-01-18T11:58:41.833Z,35.21
2023-01-18T11:59:47.103Z,33.54
2023-01-18T12:00:59.045Z,33.20
2023-01-18T12:02:33.442Z,33.13
2023-01-18T12:03:58.200Z,32.66
2023-01-18T12:05:22.665Z,32.41
2023-01-18T12:06:41.495Z,33.72
2023-01-18T12:07:57.862Z,34.21
2023-01-18T12:09:09.773Z,34.21
2023-01-18T12:10:21.895Z,33.73
2023-01-18T12:11:43.549Z,33.54
2023-01-18T12:13:07.335Z,32.50
2023-01-18T12:14:20.701Z,31.38
2023-01-18T12:15:47.907Z,31.90
2023-01-18T12:17:08.248Z,32.51
2023-01-18T12:18:28.755Z,32.38
2023-01-18T12:19:56.735Z,33.50
2023-01-18T12:21:08.980Z,33.94
2023-01-18T12:22:48.080Z,33.77
2023-01-18T12:24:22.123Z,35.11
2023-01-18T12:25:43.187Z,35.28
2023-01-18T12:26:52.813Z,36.09
2023-01-18T12:28:05.013Z,36.26
2023-01-18T12:29:26.037Z,36.49
2023-01-18T12:30:53.292Z,37.47
2023-01-18T12:32:08.069Z,37.47
2023-01-18T12:33:42.260Z,38.02
2023-01-18T12:34:59.045Z,38.39
2023-01-18T12:36:13.879Z,38.76
2023-01-18T12:37:32.808Z,39.19
2023-01-18T12:38:41.146Z,39.28
2023-01-18T12:40:13.177Z,39.48
2023-01-18T12:41:27.864Z,40.69
2023-01-18T12:42:44.761Z,40.85
2023-01-18T12:44:00.503Z,40.42
2023-01-18T12:45:15.042Z,40.65
2023-01-18T12:46:25.660Z,41.38
2023-01-18T12:47:37.120Z,41.62
2023-01-18T12:48:48.480Z,41.92
2023-01-18T12:49:57.782Z,43.28
2023-01-18T12:51:01.813Z,43.71
2023-01-18T12:52:18.218Z,42.85
2023-01-18T12:53:32.117Z,42.46
2023-01-18T12:54:39.860Z,42.84
2023-01-18T12:55:46.838Z,43.24
2023-01-18T12:56:54.615Z,42.78
2023-01-18T12:58:00.860Z,43.65
2023-01-18T12:59:08.020Z,43.74
2023-01-18T13:00:20.093Z,43.81
2023-01-18T13:01:27.248Z,42.98
2023-01-18T13:02:34.628Z,43.59
2023-01-18T13:03:42.714Z,43.43
2023-01-18T13:04:52.784Z,43.41
2023-01-18T13:05:58.605Z,43.36
2023-01-18T13:07:08.300Z,43.84
2023-01-18T13:08:15.052Z,43.66
2023-01-18T13:09:23.351Z,43.34
2023-01-18T13:10:30.069Z,43.11
2023-01-18T13:11:36.773Z,43.56
2023-01-18T13:12:42.440Z,44.49
2023-01-18T13:13:46.872Z,44.10
2023-01-18T13:14:56.026Z,44.15
2023-01-18T13:16:09.888Z,43.97
2023-01-18T13:17:18.590Z,43.28
2023-01-18T13:18:27.405Z,43.51
2023-01-18T13:19:41.102Z,44.02
2023-01-18T13:20:55.805Z,44.33
2023-01-18T13:22:08.778Z,43.85
2023-01-18T13:23:26.236Z,43.91
2023-01-18T13:24:44.596Z,43.69
2023-01-18T13:25:54.004Z,43.20
2023-01-18T13:27:09.362Z,43.14
2023-01-18T13:28:19.621Z,43.32
2023-01-18T13:29:29.304Z,43.55
2023-01-18T13:30:35.216Z,43.93
2023-01-18T13:31:38.266Z,43.42
2023-01-18T13:32:45.250Z,43.97
2023-01-18T13:33:57.862Z,44.25
2023-01-18T13:35:19.040Z,44.34
2023-01-18T13:36:24.220Z,44.53
2023-01-18T13:37:50.906Z,44.97
2023-01-18T13:38:57.298Z,45.29
2023-01-18T13:39:59.612Z,44.72
2023-01-18T13:41:05.240Z,45.09
2023-01-18T13:42:24.437Z,45.16
2023-01-18T13:44:06.299Z,45.32
2023-01-18T13:45:21.189Z,45.51
2023-01-18T13:46:26.625Z,45.13
2023-01-18T13:47:53.951Z,44.92
2023-01-18T13:48:58.494Z,45.99
2023-01-18T13:50:02.000Z,46.04
2023-01-18T13:51:06.890Z,46.08
2023-01-18T13:52:31.707Z,46.24
2023-01-18T13:53:49.823Z,46.43
2023-01-18T13:55:05.503Z,46.50
2023-01-18T13:56:27.896Z,46.26
2023-01-18T13:57:36.598Z,47.07
2023-01-18T13:58:52.411Z,47.84
2023-01-18T13:59:56.187Z,47.26
2023-01-18T14:01:03.588Z,47.19
2023-01-18T14:02:13.876Z,47.03
2023-01-18T14:03:21.961Z,47.43
2023-01-18T14:04:32.605Z,47.43
2023-01-18T14:05:40.272Z,47.12
2023-01-18T14:06:46.718Z,47.25
2023-01-18T14:07:53.696Z,47.53
2023-01-18T14:09:03.328Z,47.42
2023-01-18T14:10:08.861Z,47.66
2023-01-18T14:11:25.218Z,47.54
2023-01-18T14:12:47.201Z,47.85
2023-01-18T14:14:09.158Z,48.19
2023-01-18T14:15:25.539Z,48.13
2023-01-18T14:16:30.489Z,48.04
2023-01-18T14:17:41.719Z,48.11
2023-01-18T14:18:56.512Z,48.43
2023-01-18T14:20:38.139Z,48.18
2023-01-18T14:21:58.574Z,48.16
2023-01-18T14:23:25.203Z,48.12
2023-01-18T14:24:46.119Z,48.23
2023-01-18T14:26:15.346Z,48.48
2023-01-18T14:27:24.423Z,48.50
2023-01-18T14:28:36.457Z,48.69
2023-01-18T14:29:47.729Z,48.46